sensor_id;sensor_type;location;lat;lon;timestamp;P1;durP1;ratioP1;P2;durP2;ratioP2
76051;SDS011;64751;48.708;9.710;2023-04-08T00:01:07;0.15;;;0.15;;
76051;SDS011;64751;48.708;9.710;2023-04-08T00:03:34;0.28;;;0.28;;
76051;SDS011;64751;48.708;9.710;2023-04-08T00:06:03;0.10;;;0.10;;
76051;SDS011;64751;48.708;9.710;2023-04-08T00:08:31;0.20;;;0.20;;
76051;SDS011;64751;48.708;9.710;2023-04-08T00:10:58;0.20;;;0.20;;
76051;SDS011;64751;48.708;9.710;2023-04-08T00:13:26;0.22;;;0.22;;
76051;SDS011;64751;48.708;9.710;2023-04-08T00:15:54;0.30;;;0.30;;
76051;SDS011;64751;48.708;9.710;2023-04-08T00:18:21;0.10;;;0.10;;
76051;SDS011;64751;48.708;9.710;2023-04-08T00:20:49;0.30;;;0.30;;
76051;SDS011;64751;48.708;9.710;2023-04-08T00:23:18;0.28;;;0.28;;
76051;SDS011;64751;48.708;9.710;2023-04-08T00:25:46;0.10;;;0.10;;
76051;SDS011;64751;48.708;9.710;2023-04-08T00:28:13;0.20;;;0.20;;
76051;SDS011;64751;48.708;9.710;2023-04-08T00:30:41;0.22;;;0.22;;
76051;SDS011;64751;48.708;9.710;2023-04-08T00:33:09;0.32;;;0.32;;
76051;SDS011;64751;48.708;9.710;2023-04-08T00:35:38;0.30;;;0.30;;
76051;SDS011;64751;48.708;9.710;2023-04-08T00:38:05;0.20;;;0.20;;
76051;SDS011;64751;48.708;9.710;2023-04-08T00:40:35;0.30;;;0.30;;
76051;SDS011;64751;48.708;9.710;2023-04-08T00:43:03;0.20;;;0.20;;
76051;SDS011;64751;48.708;9.710;2023-04-08T00:45:32;0.20;;;0.20;;
76051;SDS011;64751;48.708;9.710;2023-04-08T00:48:00;0.30;;;0.30;;
76051;SDS011;64751;48.708;9.710;2023-04-08T00:50:28;0.13;;;0.13;;
76051;SDS011;64751;48.708;9.710;2023-04-08T00:52:55;0.28;;;0.28;;
76051;SDS011;64751;48.708;9.710;2023-04-08T00:55:23;0.25;;;0.25;;
76051;SDS011;64751;48.708;9.710;2023-04-08T00:57:52;0.30;;;0.30;;
76051;SDS011;64751;48.708;9.710;2023-04-08T01:00:20;0.40;;;0.40;;
76051;SDS011;64751;48.708;9.710;2023-04-08T01:02:50;0.20;;;0.20;;
76051;SDS011;64751;48.708;9.710;2023-04-08T01:05:27;0.55;;;0.55;;
76051;SDS011;64751;48.708;9.710;2023-04-08T01:08:00;0.22;;;0.22;;
76051;SDS011;64751;48.708;9.710;2023-04-08T01:10:32;0.40;;;0.40;;
76051;SDS011;64751;48.708;9.710;2023-04-08T01:13:03;0.20;;;0.20;;
76051;SDS011;64751;48.708;9.710;2023-04-08T01:18:05;0.22;;;0.22;;
76051;SDS011;64751;48.708;9.710;2023-04-08T01:20:34;0.10;;;0.10;;
76051;SDS011;64751;48.708;9.710;2023-04-08T01:23:03;0.30;;;0.30;;
76051;SDS011;64751;48.708;9.710;2023-04-08T01:25:37;0.20;;;0.20;;
76051;SDS011;64751;48.708;9.710;2023-04-08T01:28:07;0.20;;;0.20;;
76051;SDS011;64751;48.708;9.710;2023-04-08T01:30:38;0.20;;;0.20;;
76051;SDS011;64751;48.708;9.710;2023-04-08T01:33:07;0.30;;;0.30;;
76051;SDS011;64751;48.708;9.710;2023-04-08T01:35:38;0.32;;;0.32;;
76051;SDS011;64751;48.708;9.710;2023-04-08T01:38:06;0.10;;;0.10;;
76051;SDS011;64751;48.708;9.710;2023-04-08T01:40:36;0.35;;;0.35;;
76051;SDS011;64751;48.708;9.710;2023-04-08T01:43:07;0.40;;;0.40;;
76051;SDS011;64751;48.708;9.710;2023-04-08T01:45:37;0.25;;;0.25;;
76051;SDS011;64751;48.708;9.710;2023-04-08T01:48:05;0.30;;;0.30;;
76051;SDS011;64751;48.708;9.710;2023-04-08T01:50:33;0.30;;;0.30;;
76051;SDS011;64751;48.708;9.710;2023-04-08T01:53:01;0.38;;;0.38;;
76051;SDS011;64751;48.708;9.710;2023-04-08T01:55:32;0.20;;;0.20;;
76051;SDS011;64751;48.708;9.710;2023-04-08T01:58:00;0.20;;;0.20;;
76051;SDS011;64751;48.708;9.710;2023-04-08T02:00:32;0.25;;;0.25;;
76051;SDS011;64751;48.708;9.710;2023-04-08T02:03:01;0.40;;;0.40;;
76051;SDS011;64751;48.708;9.710;2023-04-08T02:05:32;0.40;;;0.40;;
76051;SDS011;64751;48.708;9.710;2023-04-08T02:08:01;0.30;;;0.30;;
76051;SDS011;64751;48.708;9.710;2023-04-08T02:10:29;0.30;;;0.30;;
76051;SDS011;64751;48.708;9.710;2023-04-08T02:12:56;0.28;;;0.28;;
76051;SDS011;64751;48.708;9.710;2023-04-08T02:15:24;0.40;;;0.40;;
76051;SDS011;64751;48.708;9.710;2023-04-08T02:17:57;0.40;;;0.40;;
76051;SDS011;64751;48.708;9.710;2023-04-08T02:20:33;0.40;;;0.40;;
76051;SDS011;64751;48.708;9.710;2023-04-08T02:25:34;0.30;;;0.30;;
76051;SDS011;64751;48.708;9.710;2023-04-08T02:28:05;0.30;;;0.30;;
76051;SDS011;64751;48.708;9.710;2023-04-08T02:30:35;0.30;;;0.30;;
76051;SDS011;64751;48.708;9.710;2023-04-08T02:33:08;0.25;;;0.25;;
76051;SDS011;64751;48.708;9.710;2023-04-08T02:35:38;0.40;;;0.40;;
76051;SDS011;64751;48.708;9.710;2023-04-08T02:38:07;0.30;;;0.30;;
76051;SDS011;64751;48.708;9.710;2023-04-08T02:40:36;0.47;;;0.47;;
76051;SDS011;64751;48.708;9.710;2023-04-08T02:43:04;0.30;;;0.30;;
76051;SDS011;64751;48.708;9.710;2023-04-08T02:45:31;0.38;;;0.38;;
76051;SDS011;64751;48.708;9.710;2023-04-08T02:48:01;0.30;;;0.30;;
76051;SDS011;64751;48.708;9.710;2023-04-08T02:50:31;0.38;;;0.38;;
76051;SDS011;64751;48.708;9.710;2023-04-08T02:52:59;0.35;;;0.35;;
76051;SDS011;64751;48.708;9.710;2023-04-08T02:55:26;0.40;;;0.40;;
76051;SDS011;64751;48.708;9.710;2023-04-08T02:57:54;0.30;;;0.30;;
76051;SDS011;64751;48.708;9.710;2023-04-08T03:00:21;0.30;;;0.30;;
76051;SDS011;64751;48.708;9.710;2023-04-08T03:02:49;0.30;;;0.30;;
76051;SDS011;64751;48.708;9.710;2023-04-08T03:05:17;0.30;;;0.30;;
76051;SDS011;64751;48.708;9.710;2023-04-08T03:07:45;0.35;;;0.35;;
76051;SDS011;64751;48.708;9.710;2023-04-08T03:10:13;0.30;;;0.30;;
76051;SDS011;64751;48.708;9.710;2023-04-08T03:12:40;0.30;;;0.30;;
76051;SDS011;64751;48.708;9.710;2023-04-08T03:15:08;0.40;;;0.40;;
76051;SDS011;64751;48.708;9.710;2023-04-08T03:17:36;0.30;;;0.30;;
76051;SDS011;64751;48.708;9.710;2023-04-08T03:20:04;0.40;;;0.40;;
76051;SDS011;64751;48.708;9.710;2023-04-08T03:22:32;0.22;;;0.22;;
76051;SDS011;64751;48.708;9.710;2023-04-08T03:25:02;0.40;;;0.40;;
76051;SDS011;64751;48.708;9.710;2023-04-08T03:27:29;0.22;;;0.22;;
76051;SDS011;64751;48.708;9.710;2023-04-08T03:29:57;0.20;;;0.20;;
76051;SDS011;64751;48.708;9.710;2023-04-08T03:32:24;0.20;;;0.20;;
76051;SDS011;64751;48.708;9.710;2023-04-08T03:34:52;0.50;;;0.50;;
76051;SDS011;64751;48.708;9.710;2023-04-08T03:37:19;0.30;;;0.30;;
76051;SDS011;64751;48.708;9.710;2023-04-08T03:39:47;0.32;;;0.32;;
76051;SDS011;64751;48.708;9.710;2023-04-08T03:42:16;0.40;;;0.40;;
76051;SDS011;64751;48.708;9.710;2023-04-08T03:44:43;0.20;;;0.20;;
76051;SDS011;64751;48.708;9.710;2023-04-08T03:47:11;0.30;;;0.30;;
76051;SDS011;64751;48.708;9.710;2023-04-08T03:49:38;0.32;;;0.32;;
76051;SDS011;64751;48.708;9.710;2023-04-08T03:52:05;0.30;;;0.30;;
76051;SDS011;64751;48.708;9.710;2023-04-08T03:54:33;0.30;;;0.30;;
76051;SDS011;64751;48.708;9.710;2023-04-08T03:57:00;0.13;;;0.13;;
76051;SDS011;64751;48.708;9.710;2023-04-08T03:59:29;0.30;;;0.30;;
76051;SDS011;64751;48.708;9.710;2023-04-08T04:01:58;0.30;;;0.30;;
76051;SDS011;64751;48.708;9.710;2023-04-08T04:04:26;0.10;;;0.10;;
76051;SDS011;64751;48.708;9.710;2023-04-08T04:06:53;0.10;;;0.10;;
76051;SDS011;64751;48.708;9.710;2023-04-08T04:09:21;0.20;;;0.20;;
76051;SDS011;64751;48.708;9.710;2023-04-08T04:11:48;0.30;;;0.30;;
76051;SDS011;64751;48.708;9.710;2023-04-08T04:14:16;0.40;;;0.40;;
76051;SDS011;64751;48.708;9.710;2023-04-08T04:16:45;0.40;;;0.40;;
76051;SDS011;64751;48.708;9.710;2023-04-08T04:19:12;0.30;;;0.30;;
76051;SDS011;64751;48.708;9.710;2023-04-08T04:21:39;0.30;;;0.30;;
76051;SDS011;64751;48.708;9.710;2023-04-08T04:24:07;0.35;;;0.35;;
76051;SDS011;64751;48.708;9.710;2023-04-08T04:26:35;0.30;;;0.30;;
76051;SDS011;64751;48.708;9.710;2023-04-08T04:29:02;0.40;;;0.40;;
76051;SDS011;64751;48.708;9.710;2023-04-08T04:31:30;0.47;;;0.47;;
76051;SDS011;64751;48.708;9.710;2023-04-08T04:33:58;0.68;;;0.68;;
76051;SDS011;64751;48.708;9.710;2023-04-08T04:36:26;0.40;;;0.40;;
76051;SDS011;64751;48.708;9.710;2023-04-08T04:38:53;0.50;;;0.50;;
76051;SDS011;64751;48.708;9.710;2023-04-08T04:41:21;0.60;;;0.60;;
76051;SDS011;64751;48.708;9.710;2023-04-08T04:43:48;0.47;;;0.47;;
76051;SDS011;64751;48.708;9.710;2023-04-08T04:46:16;0.45;;;0.45;;
76051;SDS011;64751;48.708;9.710;2023-04-08T04:48:44;0.60;;;0.60;;
76051;SDS011;64751;48.708;9.710;2023-04-08T04:51:12;0.57;;;0.57;;
76051;SDS011;64751;48.708;9.710;2023-04-08T04:53:40;0.40;;;0.40;;
76051;SDS011;64751;48.708;9.710;2023-04-08T04:56:08;0.40;;;0.40;;
76051;SDS011;64751;48.708;9.710;2023-04-08T04:58:36;0.50;;;0.50;;
76051;SDS011;64751;48.708;9.710;2023-04-08T05:01:03;0.50;;;0.50;;
76051;SDS011;64751;48.708;9.710;2023-04-08T05:03:31;0.60;;;0.60;;
76051;SDS011;64751;48.708;9.710;2023-04-08T05:05:58;0.57;;;0.57;;
76051;SDS011;64751;48.708;9.710;2023-04-08T05:08:27;0.50;;;0.50;;
76051;SDS011;64751;48.708;9.710;2023-04-08T05:10:54;0.30;;;0.30;;
76051;SDS011;64751;48.708;9.710;2023-04-08T05:13:24;0.50;;;0.50;;
76051;SDS011;64751;48.708;9.710;2023-04-08T05:15:52;0.30;;;0.30;;
76051;SDS011;64751;48.708;9.710;2023-04-08T05:18:19;0.47;;;0.47;;
76051;SDS011;64751;48.708;9.710;2023-04-08T05:20:47;0.30;;;0.30;;
76051;SDS011;64751;48.708;9.710;2023-04-08T05:23:14;0.40;;;0.40;;
76051;SDS011;64751;48.708;9.710;2023-04-08T05:25:43;0.40;;;0.40;;
76051;SDS011;64751;48.708;9.710;2023-04-08T05:28:11;0.40;;;0.40;;
76051;SDS011;64751;48.708;9.710;2023-04-08T05:30:38;0.60;;;0.60;;
76051;SDS011;64751;48.708;9.710;2023-04-08T05:33:05;0.50;;;0.50;;
76051;SDS011;64751;48.708;9.710;2023-04-08T05:35:34;0.50;;;0.50;;
76051;SDS011;64751;48.708;9.710;2023-04-08T05:38:02;0.50;;;0.50;;
76051;SDS011;64751;48.708;9.710;2023-04-08T05:40:29;0.60;;;0.60;;
76051;SDS011;64751;48.708;9.710;2023-04-08T05:42:58;0.50;;;0.50;;
76051;SDS011;64751;48.708;9.710;2023-04-08T05:45:26;0.40;;;0.40;;
76051;SDS011;64751;48.708;9.710;2023-04-08T05:47:54;0.50;;;0.50;;
76051;SDS011;64751;48.708;9.710;2023-04-08T05:50:22;0.47;;;0.47;;
76051;SDS011;64751;48.708;9.710;2023-04-08T05:52:49;0.40;;;0.40;;
76051;SDS011;64751;48.708;9.710;2023-04-08T05:55:17;0.40;;;0.40;;
76051;SDS011;64751;48.708;9.710;2023-04-08T05:57:44;0.38;;;0.38;;
76051;SDS011;64751;48.708;9.710;2023-04-08T06:00:13;0.45;;;0.45;;
76051;SDS011;64751;48.708;9.710;2023-04-08T06:02:41;0.60;;;0.60;;
76051;SDS011;64751;48.708;9.710;2023-04-08T06:05:09;0.30;;;0.30;;
76051;SDS011;64751;48.708;9.710;2023-04-08T06:07:36;0.47;;;0.47;;
76051;SDS011;64751;48.708;9.710;2023-04-08T06:10:04;0.50;;;0.50;;
76051;SDS011;64751;48.708;9.710;2023-04-08T06:12:34;0.43;;;0.43;;
76051;SDS011;64751;48.708;9.710;2023-04-08T06:15:02;0.47;;;0.47;;
76051;SDS011;64751;48.708;9.710;2023-04-08T06:17:31;0.30;;;0.30;;
76051;SDS011;64751;48.708;9.710;2023-04-08T06:20:00;0.43;;;0.43;;
76051;SDS011;64751;48.708;9.710;2023-04-08T06:22:28;0.50;;;0.50;;
76051;SDS011;64751;48.708;9.710;2023-04-08T06:24:56;0.35;;;0.35;;
76051;SDS011;64751;48.708;9.710;2023-04-08T06:27:23;0.50;;;0.50;;
76051;SDS011;64751;48.708;9.710;2023-04-08T06:29:51;0.50;;;0.50;;
76051;SDS011;64751;48.708;9.710;2023-04-08T06:32:18;0.50;;;0.50;;
76051;SDS011;64751;48.708;9.710;2023-04-08T06:34:47;0.40;;;0.40;;
76051;SDS011;64751;48.708;9.710;2023-04-08T06:37:15;0.60;;;0.60;;
76051;SDS011;64751;48.708;9.710;2023-04-08T06:39:42;0.57;;;0.57;;
76051;SDS011;64751;48.708;9.710;2023-04-08T06:42:10;0.40;;;0.40;;
76051;SDS011;64751;48.708;9.710;2023-04-08T06:44:51;0.45;;;0.45;;
76051;SDS011;64751;48.708;9.710;2023-04-08T06:47:19;0.50;;;0.50;;
76051;SDS011;64751;48.708;9.710;2023-04-08T06:49:48;0.40;;;0.40;;
76051;SDS011;64751;48.708;9.710;2023-04-08T06:52:15;0.40;;;0.40;;
76051;SDS011;64751;48.708;9.710;2023-04-08T06:54:43;0.50;;;0.50;;
76051;SDS011;64751;48.708;9.710;2023-04-08T06:57:11;0.50;;;0.50;;
76051;SDS011;64751;48.708;9.710;2023-04-08T06:59:38;0.30;;;0.30;;
76051;SDS011;64751;48.708;9.710;2023-04-08T07:02:06;0.43;;;0.43;;
76051;SDS011;64751;48.708;9.710;2023-04-08T07:04:33;0.40;;;0.40;;
76051;SDS011;64751;48.708;9.710;2023-04-08T07:07:02;0.40;;;0.40;;
76051;SDS011;64751;48.708;9.710;2023-04-08T07:09:30;0.32;;;0.32;;
76051;SDS011;64751;48.708;9.710;2023-04-08T07:11:57;0.40;;;0.40;;
76051;SDS011;64751;48.708;9.710;2023-04-08T07:14:25;0.40;;;0.40;;
76051;SDS011;64751;48.708;9.710;2023-04-08T07:16:52;0.40;;;0.40;;
76051;SDS011;64751;48.708;9.710;2023-04-08T07:19:19;0.50;;;0.50;;
76051;SDS011;64751;48.708;9.710;2023-04-08T07:21:47;0.32;;;0.32;;
76051;SDS011;64751;48.708;9.710;2023-04-08T07:24:16;0.57;;;0.57;;
76051;SDS011;64751;48.708;9.710;2023-04-08T07:26:44;0.30;;;0.30;;
76051;SDS011;64751;48.708;9.710;2023-04-08T07:29:11;0.30;;;0.30;;
76051;SDS011;64751;48.708;9.710;2023-04-08T07:31:39;0.38;;;0.38;;
76051;SDS011;64751;48.708;9.710;2023-04-08T07:34:07;0.20;;;0.20;;
76051;SDS011;64751;48.708;9.710;2023-04-08T07:36:34;0.30;;;0.30;;
76051;SDS011;64751;48.708;9.710;2023-04-08T07:39:02;0.40;;;0.40;;
76051;SDS011;64751;48.708;9.710;2023-04-08T07:41:31;0.40;;;0.40;;
76051;SDS011;64751;48.708;9.710;2023-04-08T07:43:58;0.50;;;0.50;;
76051;SDS011;64751;48.708;9.710;2023-04-08T07:46:26;0.30;;;0.30;;
76051;SDS011;64751;48.708;9.710;2023-04-08T07:48:53;0.30;;;0.30;;
76051;SDS011;64751;48.708;9.710;2023-04-08T07:51:21;0.43;;;0.43;;
76051;SDS011;64751;48.708;9.710;2023-04-08T07:53:49;0.40;;;0.40;;
76051;SDS011;64751;48.708;9.710;2023-04-08T07:56:16;0.40;;;0.40;;
76051;SDS011;64751;48.708;9.710;2023-04-08T07:58:45;0.40;;;0.40;;
76051;SDS011;64751;48.708;9.710;2023-04-08T08:01:14;0.40;;;0.40;;
76051;SDS011;64751;48.708;9.710;2023-04-08T08:03:42;0.20;;;0.20;;
76051;SDS011;64751;48.708;9.710;2023-04-08T08:06:10;0.40;;;0.40;;
76051;SDS011;64751;48.708;9.710;2023-04-08T08:08:38;0.45;;;0.45;;
76051;SDS011;64751;48.708;9.710;2023-04-08T08:11:05;0.30;;;0.30;;
76051;SDS011;64751;48.708;9.710;2023-04-08T08:13:33;0.43;;;0.43;;
76051;SDS011;64751;48.708;9.710;2023-04-08T08:16:02;0.20;;;0.20;;
76051;SDS011;64751;48.708;9.710;2023-04-08T08:18:33;0.40;;;0.40;;
76051;SDS011;64751;48.708;9.710;2023-04-08T08:21:01;0.25;;;0.25;;
76051;SDS011;64751;48.708;9.710;2023-04-08T08:23:29;0.17;;;0.17;;
76051;SDS011;64751;48.708;9.710;2023-04-08T08:26:00;0.32;;;0.32;;
76051;SDS011;64751;48.708;9.710;2023-04-08T08:28:28;0.20;;;0.20;;
76051;SDS011;64751;48.708;9.710;2023-04-08T08:30:56;0.30;;;0.30;;
76051;SDS011;64751;48.708;9.710;2023-04-08T08:33:25;0.30;;;0.30;;
76051;SDS011;64751;48.708;9.710;2023-04-08T08:35:52;0.30;;;0.30;;
76051;SDS011;64751;48.708;9.710;2023-04-08T08:38:20;0.10;;;0.10;;
76051;SDS011;64751;48.708;9.710;2023-04-08T08:40:52;0.10;;;0.10;;
76051;SDS011;64751;48.708;9.710;2023-04-08T08:43:20;0.40;;;0.40;;
76051;SDS011;64751;48.708;9.710;2023-04-08T08:45:48;0.30;;;0.30;;
76051;SDS011;64751;48.708;9.710;2023-04-08T08:48:16;0.22;;;0.22;;
76051;SDS011;64751;48.708;9.710;2023-04-08T08:50:45;0.22;;;0.22;;
76051;SDS011;64751;48.708;9.710;2023-04-08T08:53:12;0.30;;;0.30;;
76051;SDS011;64751;48.708;9.710;2023-04-08T08:55:40;0.30;;;0.30;;
76051;SDS011;64751;48.708;9.710;2023-04-08T08:58:08;0.10;;;0.10;;
76051;SDS011;64751;48.708;9.710;2023-04-08T09:00:36;0.17;;;0.17;;
76051;SDS011;64751;48.708;9.710;2023-04-08T09:03:14;0.20;;;0.20;;
76051;SDS011;64751;48.708;9.710;2023-04-08T09:05:47;0.25;;;0.25;;
76051;SDS011;64751;48.708;9.710;2023-04-08T09:08:26;0.30;;;0.30;;
76051;SDS011;64751;48.708;9.710;2023-04-08T09:10:55;0.30;;;0.30;;
76051;SDS011;64751;48.708;9.710;2023-04-08T09:13:36;0.40;;;0.40;;
76051;SDS011;64751;48.708;9.710;2023-04-08T09:16:04;0.28;;;0.28;;
76051;SDS011;64751;48.708;9.710;2023-04-08T09:18:34;0.20;;;0.20;;
76051;SDS011;64751;48.708;9.710;2023-04-08T09:21:04;0.30;;;0.30;;
76051;SDS011;64751;48.708;9.710;2023-04-08T09:23:36;0.30;;;0.30;;
76051;SDS011;64751;48.708;9.710;2023-04-08T09:26:09;0.17;;;0.17;;
76051;SDS011;64751;48.708;9.710;2023-04-08T09:28:38;0.20;;;0.20;;
76051;SDS011;64751;48.708;9.710;2023-04-08T09:31:19;0.30;;;0.30;;
76051;SDS011;64751;48.708;9.710;2023-04-08T09:33:48;0.30;;;0.30;;
76051;SDS011;64751;48.708;9.710;2023-04-08T09:36:18;0.10;;;0.10;;
76051;SDS011;64751;48.708;9.710;2023-04-08T09:38:47;0.30;;;0.30;;
76051;SDS011;64751;48.708;9.710;2023-04-08T09:41:16;0.47;;;0.47;;
76051;SDS011;64751;48.708;9.710;2023-04-08T09:43:49;0.30;;;0.30;;
76051;SDS011;64751;48.708;9.710;2023-04-08T09:46:17;0.10;;;0.10;;
76051;SDS011;64751;48.708;9.710;2023-04-08T09:48:55;0.20;;;0.20;;
76051;SDS011;64751;48.708;9.710;2023-04-08T09:51:35;0.20;;;0.20;;
76051;SDS011;64751;48.708;9.710;2023-04-08T09:54:09;0.20;;;0.20;;
76051;SDS011;64751;48.708;9.710;2023-04-08T09:56:42;0.20;;;0.20;;
76051;SDS011;64751;48.708;9.710;2023-04-08T09:59:14;0.20;;;0.20;;
76051;SDS011;64751;48.708;9.710;2023-04-08T10:01:49;0.40;;;0.40;;
76051;SDS011;64751;48.708;9.710;2023-04-08T10:04:19;0.20;;;0.20;;
76051;SDS011;64751;48.708;9.710;2023-04-08T10:06:51;0.20;;;0.20;;
76051;SDS011;64751;48.708;9.710;2023-04-08T10:09:23;0.20;;;0.20;;
76051;SDS011;64751;48.708;9.710;2023-04-08T10:11:53;0.30;;;0.30;;
76051;SDS011;64751;48.708;9.710;2023-04-08T10:14:21;0.13;;;0.13;;
76051;SDS011;64751;48.708;9.710;2023-04-08T10:16:48;0.30;;;0.30;;
76051;SDS011;64751;48.708;9.710;2023-04-08T10:19:35;0.30;;;0.30;;
76051;SDS011;64751;48.708;9.710;2023-04-08T10:27:59;0.20;;;0.20;;
76051;SDS011;64751;48.708;9.710;2023-04-08T10:30:40;0.20;;;0.20;;
76051;SDS011;64751;48.708;9.710;2023-04-08T10:33:09;0.30;;;0.30;;
76051;SDS011;64751;48.708;9.710;2023-04-08T10:35:39;0.28;;;0.28;;
76051;SDS011;64751;48.708;9.710;2023-04-08T10:38:11;0.20;;;0.20;;
76051;SDS011;64751;48.708;9.710;2023-04-08T10:40:41;0.20;;;0.20;;
76051;SDS011;64751;48.708;9.710;2023-04-08T10:43:09;0.10;;;0.10;;
76051;SDS011;64751;48.708;9.710;2023-04-08T10:45:38;0.25;;;0.25;;
76051;SDS011;64751;48.708;9.710;2023-04-08T10:48:10;0.30;;;0.30;;
76051;SDS011;64751;48.708;9.710;2023-04-08T10:50:39;0.30;;;0.30;;
76051;SDS011;64751;48.708;9.710;2023-04-08T10:53:07;0.20;;;0.20;;
76051;SDS011;64751;48.708;9.710;2023-04-08T10:55:34;0.30;;;0.30;;
76051;SDS011;64751;48.708;9.710;2023-04-08T10:58:07;0.28;;;0.28;;
76051;SDS011;64751;48.708;9.710;2023-04-08T11:00:36;0.20;;;0.20;;
76051;SDS011;64751;48.708;9.710;2023-04-08T11:03:05;0.13;;;0.13;;
76051;SDS011;64751;48.708;9.710;2023-04-08T11:05:35;0.10;;;0.10;;
76051;SDS011;64751;48.708;9.710;2023-04-08T11:08:04;0.25;;;0.25;;
76051;SDS011;64751;48.708;9.710;2023-04-08T11:10:35;0.35;;;0.35;;
76051;SDS011;64751;48.708;9.710;2023-04-08T11:13:06;0.10;;;0.10;;
76051;SDS011;64751;48.708;9.710;2023-04-08T11:15:35;0.10;;;0.10;;
76051;SDS011;64751;48.708;9.710;2023-04-08T11:18:03;0.28;;;0.28;;
76051;SDS011;64751;48.708;9.710;2023-04-08T11:20:31;0.20;;;0.20;;
76051;SDS011;64751;48.708;9.710;2023-04-08T11:23:01;0.25;;;0.25;;
76051;SDS011;64751;48.708;9.710;2023-04-08T11:25:29;0.20;;;0.20;;
76051;SDS011;64751;48.708;9.710;2023-04-08T11:27:56;0.10;;;0.10;;
76051;SDS011;64751;48.708;9.710;2023-04-08T11:30:26;0.20;;;0.20;;
76051;SDS011;64751;48.708;9.710;2023-04-08T11:32:55;0.20;;;0.20;;
76051;SDS011;64751;48.708;9.710;2023-04-08T11:35:27;0.10;;;0.10;;
76051;SDS011;64751;48.708;9.710;2023-04-08T11:37:54;0.30;;;0.30;;
76051;SDS011;64751;48.708;9.710;2023-04-08T11:40:23;0.10;;;0.10;;
76051;SDS011;64751;48.708;9.710;2023-04-08T11:42:51;0.10;;;0.10;;
76051;SDS011;64751;48.708;9.710;2023-04-08T11:45:19;0.20;;;0.20;;
76051;SDS011;64751;48.708;9.710;2023-04-08T11:47:49;0.20;;;0.20;;
76051;SDS011;64751;48.708;9.710;2023-04-08T11:50:23;0.20;;;0.20;;
76051;SDS011;64751;48.708;9.710;2023-04-08T11:52:51;0.10;;;0.10;;
76051;SDS011;64751;48.708;9.710;2023-04-08T11:55:21;0.15;;;0.15;;
76051;SDS011;64751;48.708;9.710;2023-04-08T11:57:50;0.20;;;0.20;;
76051;SDS011;64751;48.708;9.710;2023-04-08T12:00:18;0.20;;;0.20;;
76051;SDS011;64751;48.708;9.710;2023-04-08T12:02:46;0.10;;;0.10;;
76051;SDS011;64751;48.708;9.710;2023-04-08T12:05:16;0.17;;;0.17;;
76051;SDS011;64751;48.708;9.710;2023-04-08T12:07:44;0.20;;;0.20;;
76051;SDS011;64751;48.708;9.710;2023-04-08T12:10:11;0.20;;;0.20;;
76051;SDS011;64751;48.708;9.710;2023-04-08T12:12:39;0.30;;;0.30;;
76051;SDS011;64751;48.708;9.710;2023-04-08T12:15:08;0.20;;;0.20;;
76051;SDS011;64751;48.708;9.710;2023-04-08T12:17:36;0.30;;;0.30;;
76051;SDS011;64751;48.708;9.710;2023-04-08T12:20:04;0.20;;;0.20;;
76051;SDS011;64751;48.708;9.710;2023-04-08T12:22:34;0.10;;;0.10;;
76051;SDS011;64751;48.708;9.710;2023-04-08T12:25:01;0.20;;;0.20;;
76051;SDS011;64751;48.708;9.710;2023-04-08T12:27:29;0.20;;;0.20;;
76051;SDS011;64751;48.708;9.710;2023-04-08T12:29:58;0.30;;;0.30;;
76051;SDS011;64751;48.708;9.710;2023-04-08T12:32:26;0.10;;;0.10;;
76051;SDS011;64751;48.708;9.710;2023-04-08T12:34:53;0.20;;;0.20;;
76051;SDS011;64751;48.708;9.710;2023-04-08T12:37:21;0.10;;;0.10;;
76051;SDS011;64751;48.708;9.710;2023-04-08T12:39:50;0.00;;;0.00;;
76051;SDS011;64751;48.708;9.710;2023-04-08T12:42:17;0.20;;;0.20;;
76051;SDS011;64751;48.708;9.710;2023-04-08T12:44:45;0.10;;;0.10;;
76051;SDS011;64751;48.708;9.710;2023-04-08T12:47:12;0.10;;;0.10;;
76051;SDS011;64751;48.708;9.710;2023-04-08T12:49:40;0.10;;;0.10;;
76051;SDS011;64751;48.708;9.710;2023-04-08T12:52:07;0.30;;;0.30;;
76051;SDS011;64751;48.708;9.710;2023-04-08T12:54:36;0.20;;;0.20;;
76051;SDS011;64751;48.708;9.710;2023-04-08T12:57:07;0.10;;;0.10;;
76051;SDS011;64751;48.708;9.710;2023-04-08T12:59:34;0.30;;;0.30;;
76051;SDS011;64751;48.708;9.710;2023-04-08T13:02:03;0.25;;;0.25;;
76051;SDS011;64751;48.708;9.710;2023-04-08T13:04:30;0.00;;;0.00;;
76051;SDS011;64751;48.708;9.710;2023-04-08T13:06:57;0.20;;;0.20;;
76051;SDS011;64751;48.708;9.710;2023-04-08T13:09:25;0.10;;;0.10;;
76051;SDS011;64751;48.708;9.710;2023-04-08T13:11:56;0.10;;;0.10;;
76051;SDS011;64751;48.708;9.710;2023-04-08T13:14:33;0.30;;;0.30;;
76051;SDS011;64751;48.708;9.710;2023-04-08T13:17:00;0.30;;;0.30;;
76051;SDS011;64751;48.708;9.710;2023-04-08T13:19:28;0.10;;;0.10;;
76051;SDS011;64751;48.708;9.710;2023-04-08T13:21:56;0.13;;;0.13;;
76051;SDS011;64751;48.708;9.710;2023-04-08T13:24:23;0.10;;;0.10;;
76051;SDS011;64751;48.708;9.710;2023-04-08T13:26:51;0.10;;;0.10;;
76051;SDS011;64751;48.708;9.710;2023-04-08T13:29:18;0.15;;;0.10;;
76051;SDS011;64751;48.708;9.710;2023-04-08T13:32:05;0.00;;;0.00;;
76051;SDS011;64751;48.708;9.710;2023-04-08T13:34:51;0.15;;;0.15;;
76051;SDS011;64751;48.708;9.710;2023-04-08T13:37:36;0.15;;;0.15;;
76051;SDS011;64751;48.708;9.710;2023-04-08T13:40:04;0.20;;;0.20;;
76051;SDS011;64751;48.708;9.710;2023-04-08T13:42:33;0.10;;;0.10;;
76051;SDS011;64751;48.708;9.710;2023-04-08T13:45:01;0.20;;;0.20;;
76051;SDS011;64751;48.708;9.710;2023-04-08T13:47:29;0.20;;;0.20;;
76051;SDS011;64751;48.708;9.710;2023-04-08T13:49:57;0.17;;;0.17;;
76051;SDS011;64751;48.708;9.710;2023-04-08T13:52:25;0.20;;;0.20;;
76051;SDS011;64751;48.708;9.710;2023-04-08T13:54:52;0.20;;;0.20;;
76051;SDS011;64751;48.708;9.710;2023-04-08T13:57:20;0.10;;;0.10;;
76051;SDS011;64751;48.708;9.710;2023-04-08T13:59:47;0.17;;;0.17;;
76051;SDS011;64751;48.708;9.710;2023-04-08T14:02:15;0.10;;;0.10;;
76051;SDS011;64751;48.708;9.710;2023-04-08T14:04:44;0.20;;;0.20;;
76051;SDS011;64751;48.708;9.710;2023-04-08T14:07:12;0.17;;;0.17;;
76051;SDS011;64751;48.708;9.710;2023-04-08T14:09:40;0.20;;;0.20;;
76051;SDS011;64751;48.708;9.710;2023-04-08T14:12:07;0.20;;;0.20;;
76051;SDS011;64751;48.708;9.710;2023-04-08T14:14:35;0.10;;;0.10;;
76051;SDS011;64751;48.708;9.710;2023-04-08T14:17:02;0.10;;;0.10;;
76051;SDS011;64751;48.708;9.710;2023-04-08T14:19:30;0.20;;;0.20;;
76051;SDS011;64751;48.708;9.710;2023-04-08T14:21:59;0.10;;;0.10;;
76051;SDS011;64751;48.708;9.710;2023-04-08T14:24:27;0.20;;;0.20;;
76051;SDS011;64751;48.708;9.710;2023-04-08T14:26:54;0.15;;;0.15;;
76051;SDS011;64751;48.708;9.710;2023-04-08T14:29:22;0.00;;;0.00;;
76051;SDS011;64751;48.708;9.710;2023-04-08T14:31:50;0.05;;;0.05;;
76051;SDS011;64751;48.708;9.710;2023-04-08T14:34:18;0.17;;;0.17;;
76051;SDS011;64751;48.708;9.710;2023-04-08T14:36:46;0.10;;;0.10;;
76051;SDS011;64751;48.708;9.710;2023-04-08T14:39:14;0.10;;;0.10;;
76051;SDS011;64751;48.708;9.710;2023-04-08T14:41:42;0.10;;;0.10;;
76051;SDS011;64751;48.708;9.710;2023-04-08T14:44:11;0.20;;;0.20;;
76051;SDS011;64751;48.708;9.710;2023-04-08T14:46:39;0.20;;;0.20;;
76051;SDS011;64751;48.708;9.710;2023-04-08T14:49:06;0.10;;;0.10;;
76051;SDS011;64751;48.708;9.710;2023-04-08T14:51:34;0.20;;;0.20;;
76051;SDS011;64751;48.708;9.710;2023-04-08T14:54:02;0.10;;;0.10;;
76051;SDS011;64751;48.708;9.710;2023-04-08T14:56:32;0.20;;;0.20;;
76051;SDS011;64751;48.708;9.710;2023-04-08T14:58:59;0.17;;;0.17;;
76051;SDS011;64751;48.708;9.710;2023-04-08T15:01:27;0.25;;;0.25;;
76051;SDS011;64751;48.708;9.710;2023-04-08T15:03:57;0.20;;;0.20;;
76051;SDS011;64751;48.708;9.710;2023-04-08T15:06:24;0.20;;;0.20;;
76051;SDS011;64751;48.708;9.710;2023-04-08T15:08:52;0.10;;;0.10;;